sensor_id;sensor_type;location;lat;lon;timestamp;pressure;altitude;pressure_sealevel;temperature;humidity
55068;BME280;40965;52.368;9.712;2023-04-19T00:02:18;102166.94;;;8.73;50.51
55068;BME280;40965;52.368;9.712;2023-04-19T00:04:45;102162.41;;;8.65;49.04
55068;BME280;40965;52.368;9.712;2023-04-19T00:07:12;102170.16;;;8.61;48.25
55068;BME280;40965;52.368;9.712;2023-04-19T00:09:39;102164.91;;;8.60;47.31
55068;BME280;40965;52.368;9.712;2023-04-19T00:12:05;102162.22;;;8.57;47.54
55068;BME280;40965;52.368;9.712;2023-04-19T00:14:32;102163.94;;;8.56;47.68
55068;BME280;40965;52.368;9.712;2023-04-19T00:16:58;102163.94;;;8.56;47.20
55068;BME280;40965;52.368;9.712;2023-04-19T00:19:25;102161.41;;;8.59;47.67
55068;BME280;40965;52.368;9.712;2023-04-19T00:21:51;102158.78;;;8.58;47.08
55068;BME280;40965;52.368;9.712;2023-04-19T00:24:18;102170.22;;;8.63;46.66
55068;BME280;40965;52.368;9.712;2023-04-19T00:26:44;102163.94;;;8.56;46.01
55068;BME280;40965;52.368;9.712;2023-04-19T00:29:11;102166.41;;;8.49;46.25
55068;BME280;40965;52.368;9.712;2023-04-19T00:31:37;102159.25;;;8.43;46.40
55068;BME280;40965;52.368;9.712;2023-04-19T00:34:04;102164.41;;;8.40;46.82
55068;BME280;40965;52.368;9.712;2023-04-19T00:36:31;102173.00;;;8.36;46.69
55068;BME280;40965;52.368;9.712;2023-04-19T00:38:58;102160.59;;;8.27;46.89
55068;BME280;40965;52.368;9.712;2023-04-19T00:41:24;102170.97;;;8.24;46.96
55068;BME280;40965;52.368;9.712;2023-04-19T00:43:50;102171.69;;;8.18;46.97
55068;BME280;40965;52.368;9.712;2023-04-19T00:46:17;102175.09;;;8.16;47.39
55068;BME280;40965;52.368;9.712;2023-04-19T00:48:44;102170.66;;;8.11;47.43
55068;BME280;40965;52.368;9.712;2023-04-19T00:51:11;102182.84;;;8.13;47.37
55068;BME280;40965;52.368;9.712;2023-04-19T00:53:39;102174.78;;;8.03;47.38
55068;BME280;40965;52.368;9.712;2023-04-19T00:56:07;102173.59;;;7.90;47.29
55068;BME280;40965;52.368;9.712;2023-04-19T00:58:34;102175.16;;;7.84;47.92
55068;BME280;40965;52.368;9.712;2023-04-19T01:01:00;102177.56;;;7.76;48.55
55068;BME280;40965;52.368;9.712;2023-04-19T01:03:27;102174.00;;;7.74;48.31
55068;BME280;40965;52.368;9.712;2023-04-19T01:05:54;102171.94;;;7.62;48.91
55068;BME280;40965;52.368;9.712;2023-04-19T01:08:22;102181.91;;;7.45;49.08
55068;BME280;40965;52.368;9.712;2023-04-19T01:10:49;102190.03;;;7.25;49.74
55068;BME280;40965;52.368;9.712;2023-04-19T01:13:15;102183.44;;;7.08;50.26
55068;BME280;40965;52.368;9.712;2023-04-19T01:15:42;102180.44;;;6.95;50.79
55068;BME280;40965;52.368;9.712;2023-04-19T01:18:09;102189.59;;;6.83;51.09
55068;BME280;40965;52.368;9.712;2023-04-19T01:20:36;102190.09;;;6.71;51.69
55068;BME280;40965;52.368;9.712;2023-04-19T01:23:02;102185.34;;;6.57;51.70
55068;BME280;40965;52.368;9.712;2023-04-19T01:25:29;102190.09;;;6.43;52.17
55068;BME280;40965;52.368;9.712;2023-04-19T01:27:56;102182.75;;;6.32;52.97
55068;BME280;40965;52.368;9.712;2023-04-19T01:30:22;102185.94;;;6.23;53.58
55068;BME280;40965;52.368;9.712;2023-04-19T01:32:49;102186.63;;;6.17;53.56
55068;BME280;40965;52.368;9.712;2023-04-19T01:35:15;102192.38;;;6.08;53.71
55068;BME280;40965;52.368;9.712;2023-04-19T01:37:42;102187.97;;;6.06;54.15
55068;BME280;40965;52.368;9.712;2023-04-19T01:40:08;102186.88;;;5.99;54.30
55068;BME280;40965;52.368;9.712;2023-04-19T01:42:35;102187.34;;;5.89;54.49
55068;BME280;40965;52.368;9.712;2023-04-19T01:45:02;102187.84;;;5.78;55.18
55068;BME280;40965;52.368;9.712;2023-04-19T01:47:29;102192.78;;;5.71;55.46
55068;BME280;40965;52.368;9.712;2023-04-19T01:49:57;102189.19;;;5.67;55.84
55068;BME280;40965;52.368;9.712;2023-04-19T01:52:24;102192.34;;;5.58;56.55
55068;BME280;40965;52.368;9.712;2023-04-19T01:54:50;102190.75;;;5.62;56.75
55068;BME280;40965;52.368;9.712;2023-04-19T01:57:17;102189.69;;;5.57;56.83
55068;BME280;40965;52.368;9.712;2023-04-19T01:59:43;102184.09;;;5.46;56.84
55068;BME280;40965;52.368;9.712;2023-04-19T02:02:10;102174.25;;;5.37;57.38
55068;BME280;40965;52.368;9.712;2023-04-19T02:04:37;102176.56;;;5.29;58.28
55068;BME280;40965;52.368;9.712;2023-04-19T02:07:03;102173.78;;;5.25;58.42
55068;BME280;40965;52.368;9.712;2023-04-19T02:09:29;102171.88;;;5.19;58.58
55068;BME280;40965;52.368;9.712;2023-04-19T02:11:56;102174.16;;;5.11;59.27
55068;BME280;40965;52.368;9.712;2023-04-19T02:14:22;102175.00;;;5.10;59.80
55068;BME280;40965;52.368;9.712;2023-04-19T02:16:49;102181.13;;;5.12;59.89
55068;BME280;40965;52.368;9.712;2023-04-19T02:19:15;102179.41;;;5.13;59.98
55068;BME280;40965;52.368;9.712;2023-04-19T02:21:42;102171.44;;;5.08;59.76
55068;BME280;40965;52.368;9.712;2023-04-19T02:24:08;102173.97;;;5.07;60.25
55068;BME280;40965;52.368;9.712;2023-04-19T02:26:35;102178.19;;;5.03;60.62
55068;BME280;40965;52.368;9.712;2023-04-19T02:29:01;102182.38;;;5.00;61.08
55068;BME280;40965;52.368;9.712;2023-04-19T02:31:28;102182.38;;;5.00;60.87
55068;BME280;40965;52.368;9.712;2023-04-19T02:33:54;102191.69;;;4.94;61.33
55068;BME280;40965;52.368;9.712;2023-04-19T02:36:21;102188.84;;;4.88;61.58
55068;BME280;40965;52.368;9.712;2023-04-19T02:38:47;102194.75;;;4.84;62.09
55068;BME280;40965;52.368;9.712;2023-04-19T02:41:14;102187.84;;;4.85;62.06
55068;BME280;40965;52.368;9.712;2023-04-19T02:43:40;102192.44;;;4.92;62.07
55068;BME280;40965;52.368;9.712;2023-04-19T02:46:07;102194.75;;;4.84;62.18
55068;BME280;40965;52.368;9.712;2023-04-19T02:48:36;102194.38;;;4.75;63.00
55068;BME280;40965;52.368;9.712;2023-04-19T02:51:02;102183.69;;;4.67;63.05
55068;BME280;40965;52.368;9.712;2023-04-19T02:53:29;102192.88;;;4.59;63.86
55068;BME280;40965;52.368;9.712;2023-04-19T02:55:55;102198.75;;;4.55;64.09
55068;BME280;40965;52.368;9.712;2023-04-19T02:58:22;102189.91;;;4.50;64.23
55068;BME280;40965;52.368;9.712;2023-04-19T03:00:48;102187.19;;;4.46;64.70
55068;BME280;40965;52.368;9.712;2023-04-19T03:03:15;102192.50;;;4.50;64.94
55068;BME280;40965;52.368;9.712;2023-04-19T03:05:41;102188.72;;;4.41;64.66
55068;BME280;40965;52.368;9.712;2023-04-19T03:08:08;102180.66;;;4.35;65.12
55068;BME280;40965;52.368;9.712;2023-04-19T03:10:36;102189.16;;;4.31;65.39
55068;BME280;40965;52.368;9.712;2023-04-19T03:13:02;102183.84;;;4.28;66.21
55068;BME280;40965;52.368;9.712;2023-04-19T03:15:31;102179.53;;;4.28;65.64
55068;BME280;40965;52.368;9.712;2023-04-19T03:17:58;102184.59;;;4.25;66.19
55068;BME280;40965;52.368;9.712;2023-04-19T03:20:24;102187.13;;;4.24;66.58
55068;BME280;40965;52.368;9.712;2023-04-19T03:22:51;102178.41;;;4.22;66.51
55068;BME280;40965;52.368;9.712;2023-04-19T03:25:17;102182.56;;;4.18;66.97
55068;BME280;40965;52.368;9.712;2023-04-19T03:27:44;102178.00;;;4.12;66.90
55068;BME280;40965;52.368;9.712;2023-04-19T03:30:12;102170.13;;;4.09;67.01
55068;BME280;40965;52.368;9.712;2023-04-19T03:32:38;102171.69;;;4.06;67.16
55068;BME280;40965;52.368;9.712;2023-04-19T03:35:05;102170.72;;;4.04;67.62
55068;BME280;40965;52.368;9.712;2023-04-19T03:37:32;102172.44;;;4.03;68.14
55068;BME280;40965;52.368;9.712;2023-04-19T03:39:58;102168.09;;;4.02;67.74
55068;BME280;40965;52.368;9.712;2023-04-19T03:42:25;102163.66;;;4.00;68.88
55068;BME280;40965;52.368;9.712;2023-04-19T03:44:51;102168.72;;;3.96;68.42
55068;BME280;40965;52.368;9.712;2023-04-19T03:47:18;102170.16;;;3.90;68.79
55068;BME280;40965;52.368;9.712;2023-04-19T03:49:44;102169.88;;;3.84;69.40
55068;BME280;40965;52.368;9.712;2023-04-19T03:52:11;102163.00;;;3.84;69.25
55068;BME280;40965;52.368;9.712;2023-04-19T03:54:37;102168.06;;;3.81;69.92
55068;BME280;40965;52.368;9.712;2023-04-19T03:57:03;102169.41;;;3.73;69.75
55068;BME280;40965;52.368;9.712;2023-04-19T03:59:30;102163.28;;;3.71;70.01
55068;BME280;40965;52.368;9.712;2023-04-19T04:01:57;102173.19;;;3.79;70.83
55068;BME280;40965;52.368;9.712;2023-04-19T04:04:23;102163.75;;;3.81;70.46
55068;BME280;40965;52.368;9.712;2023-04-19T04:06:50;102166.50;;;3.85;70.40
55068;BME280;40965;52.368;9.712;2023-04-19T04:09:16;102168.88;;;3.80;70.55
55068;BME280;40965;52.368;9.712;2023-04-19T04:11:43;102165.47;;;3.81;70.75
55068;BME280;40965;52.368;9.712;2023-04-19T04:14:09;102161.22;;;3.83;71.21
55068;BME280;40965;52.368;9.712;2023-04-19T04:16:36;102170.66;;;3.81;71.19
55068;BME280;40965;52.368;9.712;2023-04-19T04:19:05;102167.09;;;3.79;70.62
55068;BME280;40965;52.368;9.712;2023-04-19T04:21:31;102168.81;;;3.78;71.42
55068;BME280;40965;52.368;9.712;2023-04-19T04:24:01;102162.66;;;3.76;71.60
55068;BME280;40965;52.368;9.712;2023-04-19T04:26:28;102166.81;;;3.73;71.61
55068;BME280;40965;52.368;9.712;2023-04-19T04:28:58;102163.91;;;3.65;72.42
55068;BME280;40965;52.368;9.712;2023-04-19T04:31:26;102163.97;;;3.67;72.74
55068;BME280;40965;52.368;9.712;2023-04-19T04:33:53;102168.94;;;3.62;73.04
55068;BME280;40965;52.368;9.712;2023-04-19T04:36:20;102163.91;;;3.65;73.10
55068;BME280;40965;52.368;9.712;2023-04-19T04:38:46;102171.00;;;3.69;72.82
55068;BME280;40965;52.368;9.712;2023-04-19T04:41:13;102162.47;;;3.72;73.33
55068;BME280;40965;52.368;9.712;2023-04-19T04:43:40;102167.91;;;3.78;72.82
55068;BME280;40965;52.368;9.712;2023-04-19T04:46:07;102168.38;;;3.89;72.58
55068;BME280;40965;52.368;9.712;2023-04-19T04:48:36;102169.38;;;3.92;72.49
55068;BME280;40965;52.368;9.712;2023-04-19T04:51:02;102173.81;;;3.95;72.85
55068;BME280;40965;52.368;9.712;2023-04-19T04:53:29;102171.22;;;3.95;72.54
55068;BME280;40965;52.368;9.712;2023-04-19T04:55:55;102173.06;;;3.97;72.40
55068;BME280;40965;52.368;9.712;2023-04-19T04:58:22;102170.41;;;3.96;72.48
55068;BME280;40965;52.368;9.712;2023-04-19T05:00:48;102169.53;;;3.95;72.61
55068;BME280;40965;52.368;9.712;2023-04-19T05:03:15;102176.50;;;3.96;72.80
55068;BME280;40965;52.368;9.712;2023-04-19T05:05:41;102169.53;;;3.95;72.71
55068;BME280;40965;52.368;9.712;2023-04-19T05:08:08;102170.47;;;3.97;73.00
55068;BME280;40965;52.368;9.712;2023-04-19T05:10:34;102172.94;;;3.94;72.76
55068;BME280;40965;52.368;9.712;2023-04-19T05:13:01;102170.47;;;3.97;73.44
55068;BME280;40965;52.368;9.712;2023-04-19T05:15:27;102175.53;;;3.94;73.12
55068;BME280;40965;52.368;9.712;2023-04-19T05:17:55;102173.81;;;3.95;73.24
55068;BME280;40965;52.368;9.712;2023-04-19T05:20:21;102173.00;;;3.96;73.51
55068;BME280;40965;52.368;9.712;2023-04-19T05:22:48;102178.94;;;3.93;73.58
55068;BME280;40965;52.368;9.712;2023-04-19T05:25:14;102176.97;;;3.88;74.02
55068;BME280;40965;52.368;9.712;2023-04-19T05:27:41;102173.56;;;3.89;74.35
55068;BME280;40965;52.368;9.712;2023-04-19T05:30:07;102171.91;;;3.91;73.91
55068;BME280;40965;52.368;9.712;2023-04-19T05:32:34;102174.56;;;3.92;74.46
55068;BME280;40965;52.368;9.712;2023-04-19T05:35:00;102176.41;;;3.95;74.39
55068;BME280;40965;52.368;9.712;2023-04-19T05:37:27;102172.38;;;4.02;74.61
55068;BME280;40965;52.368;9.712;2023-04-19T05:39:54;102172.63;;;4.08;73.80
55068;BME280;40965;52.368;9.712;2023-04-19T05:42:23;102173.66;;;4.11;73.86
55068;BME280;40965;52.368;9.712;2023-04-19T05:44:50;102169.53;;;4.17;73.48
55068;BME280;40965;52.368;9.712;2023-04-19T05:47:22;102168.03;;;4.22;73.67
55068;BME280;40965;52.368;9.712;2023-04-19T05:49:50;102169.06;;;4.25;73.16
55068;BME280;40965;52.368;9.712;2023-04-19T05:52:16;102161.59;;;4.33;72.94
55068;BME280;40965;52.368;9.712;2023-04-19T05:54:43;102161.97;;;4.42;72.72
55068;BME280;40965;52.368;9.712;2023-04-19T05:57:11;102163.28;;;4.54;72.65
55068;BME280;40965;52.368;9.712;2023-04-19T05:59:38;102163.72;;;4.64;72.09
55068;BME280;40965;52.368;9.712;2023-04-19T06:02:05;102160.66;;;4.75;71.16
55068;BME280;40965;52.368;9.712;2023-04-19T06:04:32;102156.75;;;4.86;70.87
55068;BME280;40965;52.368;9.712;2023-04-19T06:06:59;102155.47;;;4.97;69.89
55068;BME280;40965;52.368;9.712;2023-04-19T06:09:25;102158.34;;;5.05;69.22
55068;BME280;40965;52.368;9.712;2023-04-19T06:11:52;102168.31;;;5.17;69.59
55068;BME280;40965;52.368;9.712;2023-04-19T06:14:19;102156.78;;;5.33;68.78
55068;BME280;40965;52.368;9.712;2023-04-19T06:16:46;102160.78;;;5.47;68.03
55068;BME280;40965;52.368;9.712;2023-04-19T06:19:12;102154.28;;;5.60;67.01
55068;BME280;40965;52.368;9.712;2023-04-19T06:21:45;102153.88;;;5.72;67.04
55068;BME280;40965;52.368;9.712;2023-04-19T06:24:12;102155.16;;;5.85;65.92
55068;BME280;40965;52.368;9.712;2023-04-19T06:26:39;102149.25;;;5.89;65.84
55068;BME280;40965;52.368;9.712;2023-04-19T06:29:05;102151.00;;;5.90;65.57
55068;BME280;40965;52.368;9.712;2023-04-19T06:31:34;102153.69;;;5.92;65.45
55068;BME280;40965;52.368;9.712;2023-04-19T06:34:01;102150.31;;;5.94;65.72
55068;BME280;40965;52.368;9.712;2023-04-19T06:36:31;102147.31;;;6.08;65.50
55068;BME280;40965;52.368;9.712;2023-04-19T06:38:57;102157.38;;;6.24;63.77
55068;BME280;40965;52.368;9.712;2023-04-19T06:41:24;102149.47;;;6.47;62.68
55068;BME280;40965;52.368;9.712;2023-04-19T06:43:50;102145.31;;;6.81;61.39
55068;BME280;40965;52.368;9.712;2023-04-19T06:46:17;102140.38;;;7.21;59.85
55068;BME280;40965;52.368;9.712;2023-04-19T06:48:43;102141.22;;;7.50;58.61
55068;BME280;40965;52.368;9.712;2023-04-19T06:51:10;102135.31;;;7.89;57.50
55068;BME280;40965;52.368;9.712;2023-04-19T06:53:36;102126.78;;;8.32;56.33
55068;BME280;40965;52.368;9.712;2023-04-19T06:56:03;102115.56;;;8.71;52.91
55068;BME280;40965;52.368;9.712;2023-04-19T06:58:30;102128.25;;;8.95;52.81
55068;BME280;40965;52.368;9.712;2023-04-19T07:00:58;102121.88;;;9.22;51.43
55068;BME280;40965;52.368;9.712;2023-04-19T07:03:25;102128.41;;;9.46;49.33
55068;BME280;40965;52.368;9.712;2023-04-19T07:05:53;102124.63;;;9.75;47.74
55068;BME280;40965;52.368;9.712;2023-04-19T07:08:22;102119.81;;;10.00;46.71
55068;BME280;40965;52.368;9.712;2023-04-19T07:10:49;102117.75;;;10.34;46.57
55068;BME280;40965;52.368;9.712;2023-04-19T07:13:17;102116.63;;;10.76;44.89
55068;BME280;40965;52.368;9.712;2023-04-19T07:15:43;102119.31;;;10.80;45.28
55068;BME280;40965;52.368;9.712;2023-04-19T07:18:10;102115.97;;;10.90;44.61
55068;BME280;40965;52.368;9.712;2023-04-19T07:20:39;102112.53;;;10.96;44.17
55068;BME280;40965;52.368;9.712;2023-04-19T07:23:08;102110.00;;;11.03;44.49
55068;BME280;40965;52.368;9.712;2023-04-19T07:25:35;102111.06;;;11.18;44.35
55068;BME280;40965;52.368;9.712;2023-04-19T07:28:02;102106.09;;;11.42;43.82
55068;BME280;40965;52.368;9.712;2023-04-19T07:30:28;102096.94;;;11.86;42.46
55068;BME280;40965;52.368;9.712;2023-04-19T07:32:55;102092.78;;;12.12;41.15
55068;BME280;40965;52.368;9.712;2023-04-19T07:35:21;102091.25;;;12.46;40.98
55068;BME280;40965;52.368;9.712;2023-04-19T07:37:48;102090.53;;;12.72;40.41
55068;BME280;40965;52.368;9.712;2023-04-19T07:40:14;102092.34;;;12.78;39.82
55068;BME280;40965;52.368;9.712;2023-04-19T07:42:41;102087.97;;;12.84;39.51
55068;BME280;40965;52.368;9.712;2023-04-19T07:45:08;102079.31;;;13.04;39.38
55068;BME280;40965;52.368;9.712;2023-04-19T07:47:35;102080.22;;;13.21;38.33
55068;BME280;40965;52.368;9.712;2023-04-19T07:50:05;102075.97;;;13.70;37.19
55068;BME280;40965;52.368;9.712;2023-04-19T07:52:32;102082.13;;;13.86;36.87
55068;BME280;40965;52.368;9.712;2023-04-19T07:54:59;102075.97;;;14.01;36.71
55068;BME280;40965;52.368;9.712;2023-04-19T07:57:25;102070.69;;;14.26;35.29
55068;BME280;40965;52.368;9.712;2023-04-19T07:59:52;102075.00;;;14.64;34.46
55068;BME280;40965;52.368;9.712;2023-04-19T08:02:22;102072.38;;;14.70;34.25
55068;BME280;40965;52.368;9.712;2023-04-19T08:04:49;102060.84;;;14.94;33.64
55068;BME280;40965;52.368;9.712;2023-04-19T08:07:16;102064.41;;;14.90;33.37
55068;BME280;40965;52.368;9.712;2023-04-19T08:09:43;102066.94;;;15.09;33.51
55068;BME280;40965;52.368;9.712;2023-04-19T08:12:12;102061.69;;;14.98;32.99
55068;BME280;40965;52.368;9.712;2023-04-19T08:14:38;102059.78;;;15.28;32.97
55068;BME280;40965;52.368;9.712;2023-04-19T08:17:06;102051.31;;;16.02;32.22
55068;BME280;40965;52.368;9.712;2023-04-19T08:19:33;102039.53;;;16.37;30.72
55068;BME280;40965;52.368;9.712;2023-04-19T08:21:59;102052.66;;;16.45;29.43
55068;BME280;40965;52.368;9.712;2023-04-19T08:24:28;102036.94;;;16.34;28.90
55068;BME280;40965;52.368;9.712;2023-04-19T08:27:04;102040.22;;;16.54;28.33
55068;BME280;40965;52.368;9.712;2023-04-19T08:29:31;102041.38;;;17.05;28.39
55068;BME280;40965;52.368;9.712;2023-04-19T08:31:58;102044.34;;;17.46;26.17
55068;BME280;40965;52.368;9.712;2023-04-19T08:34:25;102035.16;;;17.08;26.24
55068;BME280;40965;52.368;9.712;2023-04-19T08:36:57;102034.22;;;17.13;26.62
55068;BME280;40965;52.368;9.712;2023-04-19T08:39:24;102032.28;;;17.25;26.79
55068;BME280;40965;52.368;9.712;2023-04-19T08:41:50;102024.19;;;17.90;26.33
55068;BME280;40965;52.368;9.712;2023-04-19T08:44:17;102026.66;;;18.48;26.06
55068;BME280;40965;52.368;9.712;2023-04-19T08:46:46;102027.81;;;18.34;25.06
55068;BME280;40965;52.368;9.712;2023-04-19T08:49:15;102018.31;;;17.71;25.36
55068;BME280;40965;52.368;9.712;2023-04-19T08:51:46;102020.78;;;17.83;25.64
55068;BME280;40965;52.368;9.712;2023-04-19T08:54:14;102013.97;;;18.18;25.25
55068;BME280;40965;52.368;9.712;2023-04-19T08:56:41;102019.59;;;18.47;24.39
55068;BME280;40965;52.368;9.712;2023-04-19T08:59:08;102005.75;;;18.32;24.55
55068;BME280;40965;52.368;9.712;2023-04-19T09:01:34;102014.22;;;18.51;24.00
55068;BME280;40965;52.368;9.712;2023-04-19T09:04:04;102005.41;;;18.49;23.54
55068;BME280;40965;52.368;9.712;2023-04-19T09:06:37;102008.88;;;18.95;22.67
55068;BME280;40965;52.368;9.712;2023-04-19T09:09:21;102009.72;;;18.97;22.60
55068;BME280;40965;52.368;9.712;2023-04-19T09:11:52;102008.19;;;19.62;23.15
55068;BME280;40965;52.368;9.712;2023-04-19T09:14:20;102001.97;;;20.31;21.87
55068;BME280;40965;52.368;9.712;2023-04-19T09:16:48;101998.81;;;20.18;21.19
55068;BME280;40965;52.368;9.712;2023-04-19T09:19:16;102001.28;;;19.91;21.38
55068;BME280;40965;52.368;9.712;2023-04-19T09:21:43;101990.03;;;19.45;22.02
55068;BME280;40965;52.368;9.712;2023-04-19T09:24:10;101987.41;;;19.44;22.14
55068;BME280;40965;52.368;9.712;2023-04-19T09:26:36;101978.75;;;20.36;21.17
55068;BME280;40965;52.368;9.712;2023-04-19T09:29:06;101982.38;;;20.33;21.14
55068;BME280;40965;52.368;9.712;2023-04-19T09:31:34;101986.34;;;20.50;20.58
55068;BME280;40965;52.368;9.712;2023-04-19T09:34:15;101982.16;;;20.41;20.62
55068;BME280;40965;52.368;9.712;2023-04-19T09:36:43;101969.03;;;20.37;20.33
55068;BME280;40965;52.368;9.712;2023-04-19T09:39:13;101968.53;;;20.54;20.39
55068;BME280;40965;52.368;9.712;2023-04-19T09:41:53;101954.94;;;20.63;20.76
55068;BME280;40965;52.368;9.712;2023-04-19T09:44:20;101953.59;;;21.61;20.29
55068;BME280;40965;52.368;9.712;2023-04-19T09:46:47;101952.69;;;21.88;19.96
55068;BME280;40965;52.368;9.712;2023-04-19T09:49:21;101943.81;;;21.62;20.00
55068;BME280;40965;52.368;9.712;2023-04-19T09:51:53;101948.63;;;21.24;20.34
55068;BME280;40965;52.368;9.712;2023-04-19T09:54:22;101940.00;;;21.42;20.45
55068;BME280;40965;52.368;9.712;2023-04-19T09:56:50;101943.72;;;21.37;20.92
55068;BME280;40965;52.368;9.712;2023-04-19T09:59:17;101921.97;;;22.01;21.13
55068;BME280;40965;52.368;9.712;2023-04-19T10:01:54;101923.19;;;22.41;20.21
55068;BME280;40965;52.368;9.712;2023-04-19T10:04:21;101914.63;;;22.77;19.92
55068;BME280;40965;52.368;9.712;2023-04-19T10:06:49;101897.66;;;23.85;19.49
55068;BME280;40965;52.368;9.712;2023-04-19T10:09:19;101899.78;;;24.37;18.87
55068;BME280;40965;52.368;9.712;2023-04-19T10:11:51;101910.16;;;24.43;18.23
55068;BME280;40965;52.368;9.712;2023-04-19T10:14:23;101900.91;;;24.31;18.12
55068;BME280;40965;52.368;9.712;2023-04-19T10:16:50;101895.22;;;23.59;18.49
55068;BME280;40965;52.368;9.712;2023-04-19T10:19:19;101886.19;;;23.62;19.02
55068;BME280;40965;52.368;9.712;2023-04-19T10:21:47;101883.72;;;23.78;17.67
55068;BME280;40965;52.368;9.712;2023-04-19T10:24:16;101880.41;;;23.52;17.94
55068;BME280;40965;52.368;9.712;2023-04-19T10:32:19;101857.19;;;23.53;17.14
55068;BME280;40965;52.368;9.712;2023-04-19T10:34:45;101858.25;;;23.69;18.05
55068;BME280;40965;52.368;9.712;2023-04-19T10:37:15;101858.66;;;23.81;17.07
55068;BME280;40965;52.368;9.712;2023-04-19T10:39:43;101851.22;;;24.06;17.13
55068;BME280;40965;52.368;9.712;2023-04-19T10:42:12;101847.88;;;24.58;17.29
55068;BME280;40965;52.368;9.712;2023-04-19T10:44:38;101846.31;;;25.77;16.19
55068;BME280;40965;52.368;9.712;2023-04-19T10:47:08;101837.25;;;25.11;15.61
55068;BME280;40965;52.368;9.712;2023-04-19T10:49:45;101832.91;;;24.73;16.40
55068;BME280;40965;52.368;9.712;2023-04-19T10:52:29;101834.09;;;24.49;15.69
55068;BME280;40965;52.368;9.712;2023-04-19T10:54:56;101833.06;;;24.88;15.46
55068;BME280;40965;52.368;9.712;2023-04-19T10:57:23;101827.97;;;24.27;15.84
55068;BME280;40965;52.368;9.712;2023-04-19T11:02:49;101813.66;;;23.90;15.41
55068;BME280;40965;52.368;9.712;2023-04-19T11:05:16;101816.66;;;24.40;14.84
55068;BME280;40965;52.368;9.712;2023-04-19T11:07:44;101822.97;;;24.20;15.11
55068;BME280;40965;52.368;9.712;2023-04-19T11:10:11;101810.13;;;23.88;15.33
55068;BME280;40965;52.368;9.712;2023-04-19T11:12:41;101809.34;;;24.43;15.62
55068;BME280;40965;52.368;9.712;2023-04-19T11:15:08;101802.63;;;24.71;14.69
55068;BME280;40965;52.368;9.712;2023-04-19T11:17:35;101800.69;;;24.56;15.38
55068;BME280;40965;52.368;9.712;2023-04-19T11:20:05;101797.00;;;24.58;15.38
55068;BME280;40965;52.368;9.712;2023-04-19T11:22:39;101796.88;;;24.06;15.67
55068;BME280;40965;52.368;9.712;2023-04-19T11:25:18;101783.53;;;24.60;15.33
55068;BME280;40965;52.368;9.712;2023-04-19T11:27:50;101782.22;;;25.72;15.00
55068;BME280;40965;52.368;9.712;2023-04-19T11:30:19;101778.72;;;25.54;14.69
55068;BME280;40965;52.368;9.712;2023-04-19T11:32:48;101787.44;;;24.89;15.37
55068;BME280;40965;52.368;9.712;2023-04-19T11:35:21;101779.09;;;24.24;16.25
55068;BME280;40965;52.368;9.712;2023-04-19T11:37:49;101779.72;;;24.83;15.48
55068;BME280;40965;52.368;9.712;2023-04-19T11:40:19;101772.31;;;25.41;15.62
55068;BME280;40965;52.368;9.712;2023-04-19T11:43:01;101766.22;;;25.37;15.10
55068;BME280;40965;52.368;9.712;2023-04-19T11:45:31;101772.16;;;25.09;15.87
55068;BME280;40965;52.368;9.712;2023-04-19T11:48:03;101761.47;;;24.74;15.66
55068;BME280;40965;52.368;9.712;2023-04-19T11:50:39;101763.84;;;24.61;15.68
55068;BME280;40965;52.368;9.712;2023-04-19T11:55:47;101759.03;;;24.69;16.11
55068;BME280;40965;52.368;9.712;2023-04-19T11:58:27;101749.41;;;24.83;15.58
55068;BME280;40965;52.368;9.712;2023-04-19T12:01:23;101754.06;;;24.25;15.18
55068;BME280;40965;52.368;9.712;2023-04-19T12:03:53;101757.53;;;23.89;16.20
55068;BME280;40965;52.368;9.712;2023-04-19T12:06:28;101757.63;;;23.87;15.96
55068;BME280;40965;52.368;9.712;2023-04-19T12:08:58;101742.56;;;24.23;15.74
55068;BME280;40965;52.368;9.712;2023-04-19T12:11:41;101740.44;;;25.17;15.38
55068;BME280;40965;52.368;9.712;2023-04-19T12:14:14;101742.13;;;26.49;14.90
55068;BME280;40965;52.368;9.712;2023-04-19T12:16:43;101732.53;;;26.76;14.88
55068;BME280;40965;52.368;9.712;2023-04-19T12:19:15;101731.41;;;26.94;14.61
55068;BME280;40965;52.368;9.712;2023-04-19T12:21:40;101736.97;;;26.91;14.36
55068;BME280;40965;52.368;9.712;2023-04-19T12:24:08;101739.97;;;26.70;14.82
55068;BME280;40965;52.368;9.712;2023-04-19T12:26:34;101721.03;;;27.17;13.94
55068;BME280;40965;52.368;9.712;2023-04-19T12:29:02;101734.94;;;25.54;15.35
55068;BME280;40965;52.368;9.712;2023-04-19T12:31:31;101720.16;;;22.25;17.11
55068;BME280;40965;52.368;9.712;2023-04-19T12:33:58;101724.31;;;20.38;18.93
55068;BME280;40965;52.368;9.712;2023-04-19T12:36:28;101729.66;;;18.84;20.15
55068;BME280;40965;52.368;9.712;2023-04-19T12:38:55;101729.50;;;20.14;19.33
55068;BME280;40965;52.368;9.712;2023-04-19T12:41:22;101730.06;;;20.79;18.74
55068;BME280;40965;52.368;9.712;2023-04-19T12:43:48;101716.75;;;21.28;18.25
55068;BME280;40965;52.368;9.712;2023-04-19T12:46:15;101701.69;;;22.84;17.57
55068;BME280;40965;52.368;9.712;2023-04-19T12:48:41;101704.69;;;24.13;16.55
55068;BME280;40965;52.368;9.712;2023-04-19T12:51:08;101713.38;;;23.80;16.84
55068;BME280;40965;52.368;9.712;2023-04-19T12:53:34;101703.69;;;25.37;15.65
55068;BME280;40965;52.368;9.712;2023-04-19T12:56:01;101691.53;;;24.80;16.09
55068;BME280;40965;52.368;9.712;2023-04-19T12:58:28;101695.16;;;24.79;16.50
55068;BME280;40965;52.368;9.712;2023-04-19T13:00:56;101690.72;;;22.90;17.27
55068;BME280;40965;52.368;9.712;2023-04-19T13:03:22;101708.34;;;20.38;19.35
55068;BME280;40965;52.368;9.712;2023-04-19T13:05:49;101705.03;;;21.34;19.43
55068;BME280;40965;52.368;9.712;2023-04-19T13:08:15;101694.03;;;23.37;17.65
55068;BME280;40965;52.368;9.712;2023-04-19T13:10:46;101700.13;;;22.37;17.94